createdAt,value
2022-10-30T00:00:46.872Z,25.48
2022-10-30T00:03:14.665Z,30.02
2022-10-30T00:05:46.431Z,34.45
2022-10-30T00:08:14.704Z,27.85
2022-10-30T00:10:41.993Z,30.65
2022-10-30T00:13:09.218Z,30.67
2022-10-30T00:15:35.778Z,33.08
2022-10-30T00:18:22.399Z,31.55
2022-10-30T00:20:49.380Z,35.38
2022-10-30T00:23:16.233Z,33.13
2022-10-30T00:25:42.694Z,39.03
2022-10-30T00:28:09.196Z,33.42
2022-10-30T00:30:35.962Z,32.38
2022-10-30T00:33:03.083Z,36.28
2022-10-30T00:35:29.933Z,32.55
2022-10-30T00:37:57.041Z,34.58
2022-10-30T00:40:24.186Z,34.47
2022-10-30T00:42:50.600Z,35.65
2022-10-30T00:45:17.693Z,43.50
2022-10-30T00:47:50.326Z,100.28
2022-10-30T00:50:30.679Z,52.45
2022-10-30T00:53:02.212Z,37.88
2022-10-30T00:55:34.922Z,17.67
2022-10-30T00:58:04.622Z,20.30
2022-10-30T01:00:31.446Z,19.23
2022-10-30T01:02:58.571Z,18.70
2022-10-30T01:05:28.628Z,21.92
2022-10-30T01:07:55.388Z,21.20
2022-10-30T01:10:22.769Z,16.38
2022-10-30T01:12:51.421Z,15.15
2022-10-30T01:15:23.437Z,18.13
2022-10-30T01:18:25.571Z,25.80
2022-10-30T01:21:13.193Z,28.23
2022-10-30T01:23:54.585Z,16.90
2022-10-30T01:26:48.381Z,20.52
2022-10-30T01:29:41.264Z,18.63
2022-10-30T01:32:23.683Z,19.08
2022-10-30T01:35:34.702Z,20.70
2022-10-30T01:38:27.033Z,24.73
2022-10-30T01:40:54.034Z,24.48
2022-10-30T01:43:20.825Z,30.10
2022-10-30T01:46:21.107Z,24.30
2022-10-30T01:49:14.010Z,9.43
2022-10-30T01:51:55.096Z,12.65
2022-10-30T01:57:20.238Z,16.70
2022-10-30T01:59:58.517Z,17.30
2022-10-30T02:02:25.100Z,26.90
2022-10-30T02:04:53.656Z,27.77
2022-10-30T02:07:20.386Z,24.50
2022-10-30T02:09:54.360Z,29.52
2022-10-30T02:12:22.918Z,30.02
2022-10-30T02:14:57.698Z,31.45
2022-10-30T02:17:25.371Z,26.05
2022-10-30T02:19:51.782Z,31.58
2022-10-30T02:22:18.374Z,27.85
2022-10-30T02:24:45.360Z,30.60
2022-10-30T02:27:12.621Z,35.60
2022-10-30T02:29:40.214Z,43.40
2022-10-30T02:32:06.607Z,26.95
2022-10-30T02:34:34.397Z,36.50
2022-10-30T02:37:01.313Z,38.63
2022-10-30T02:39:27.909Z,35.85
2022-10-30T02:41:54.806Z,33.58
2022-10-30T02:44:21.800Z,29.02
2022-10-30T02:46:48.289Z,37.35
2022-10-30T02:49:14.697Z,30.65
2022-10-30T02:51:41.093Z,31.98
2022-10-30T02:54:07.545Z,39.40
2022-10-30T02:56:33.969Z,34.42
2022-10-30T02:59:00.424Z,28.73
2022-10-30T03:01:27.915Z,35.65
2022-10-30T03:03:56.765Z,26.35
2022-10-30T03:06:23.380Z,25.27
2022-10-30T03:08:50.481Z,29.30
2022-10-30T03:11:18.791Z,32.92
2022-10-30T03:13:47.706Z,30.27
2022-10-30T03:16:16.753Z,29.48
2022-10-30T03:18:44.465Z,37.63
2022-10-30T03:21:14.017Z,31.90
2022-10-30T03:23:40.445Z,30.15
2022-10-30T03:26:07.460Z,30.52
2022-10-30T03:28:42.714Z,35.70
2022-10-30T03:31:12.132Z,28.90
2022-10-30T03:33:39.908Z,36.70
2022-10-30T03:36:08.695Z,30.05
2022-10-30T03:38:36.514Z,34.95
2022-10-30T03:41:09.433Z,29.42
2022-10-30T03:43:35.866Z,36.47
2022-10-30T03:46:03.002Z,31.60
2022-10-30T03:48:30.653Z,38.15
2022-10-30T03:50:59.153Z,30.85
2022-10-30T03:53:28.372Z,32.25
2022-10-30T03:56:00.192Z,34.28
2022-10-30T03:58:29.073Z,30.88
2022-10-30T04:03:33.015Z,33.00
2022-10-30T04:05:59.831Z,34.88
2022-10-30T04:08:26.344Z,32.40
2022-10-30T04:10:52.797Z,34.95
2022-10-30T04:13:20.350Z,38.88
2022-10-30T04:15:55.908Z,34.38
2022-10-30T04:18:24.517Z,29.95
2022-10-30T04:20:50.995Z,30.13
2022-10-30T04:23:19.597Z,29.92
2022-10-30T04:25:46.239Z,38.85
2022-10-30T04:28:13.529Z,30.85
2022-10-30T04:30:41.582Z,30.13
2022-10-30T04:33:11.563Z,27.83
2022-10-30T04:35:39.408Z,25.45
2022-10-30T04:38:13.576Z,30.70
2022-10-30T04:40:43.327Z,37.53
2022-10-30T04:43:11.967Z,25.25
2022-10-30T04:45:38.811Z,35.47
2022-10-30T04:48:08.596Z,29.48
2022-10-30T04:50:41.699Z,38.67
2022-10-30T04:53:13.033Z,33.33
2022-10-30T04:55:40.459Z,33.58
2022-10-30T04:58:09.343Z,26.55
2022-10-30T05:00:37.897Z,25.45
2022-10-30T05:03:18.657Z,35.08
2022-10-30T05:05:45.511Z,38.72
2022-10-30T05:08:11.976Z,30.75
2022-10-30T05:10:40.431Z,36.00
2022-10-30T05:13:06.935Z,25.85
2022-10-30T05:15:33.323Z,26.42
2022-10-30T05:18:00.085Z,26.40
2022-10-30T05:20:27.058Z,28.45
2022-10-30T05:22:55.122Z,34.83
2022-10-30T05:25:21.628Z,26.45
2022-10-30T05:27:48.143Z,28.35
2022-10-30T05:30:14.732Z,38.45
2022-10-30T05:32:41.232Z,28.67
2022-10-30T05:35:08.736Z,33.10
2022-10-30T05:37:35.234Z,31.50
2022-10-30T05:40:02.266Z,26.83
2022-10-30T05:42:30.142Z,29.98
2022-10-30T05:45:01.472Z,33.67
2022-10-30T05:49:57.172Z,29.77
2022-10-30T05:52:25.840Z,30.77
2022-10-30T05:54:52.374Z,35.40
2022-10-30T05:57:33.151Z,26.00
2022-10-30T06:00:00.414Z,32.00
2022-10-30T06:02:27.092Z,28.75
2022-10-30T06:04:53.559Z,26.13
2022-10-30T06:07:20.316Z,32.20
2022-10-30T06:09:47.294Z,26.17
2022-10-30T06:12:39.666Z,33.22
2022-10-30T06:15:18.588Z,35.13
2022-10-30T06:17:45.526Z,27.88
2022-10-30T06:20:21.631Z,29.75
2022-10-30T06:23:02.597Z,30.45
2022-10-30T06:25:41.622Z,31.65
2022-10-30T06:28:22.679Z,32.55
2022-10-30T06:30:50.926Z,30.67
2022-10-30T06:33:17.359Z,34.63
2022-10-30T06:35:49.555Z,30.60
2022-10-30T06:38:17.424Z,37.45
2022-10-30T06:40:44.478Z,24.98
2022-10-30T06:43:22.677Z,25.33
2022-10-30T06:45:58.117Z,31.60
2022-10-30T06:48:24.654Z,30.50
2022-10-30T06:50:55.605Z,26.45
2022-10-30T06:53:23.289Z,25.70
2022-10-30T06:56:03.519Z,29.70
2022-10-30T06:58:50.476Z,28.73
2022-10-30T07:01:55.679Z,29.77
2022-10-30T07:04:26.028Z,31.50
2022-10-30T07:06:54.845Z,30.15
2022-10-30T07:09:21.522Z,27.85
2022-10-30T07:11:54.400Z,27.10
2022-10-30T07:14:42.089Z,25.00
2022-10-30T07:17:29.036Z,25.15
2022-10-30T07:19:59.471Z,32.63
2022-10-30T07:22:26.025Z,25.98
2022-10-30T07:24:54.008Z,25.45
2022-10-30T07:27:45.005Z,21.70
2022-10-30T07:30:40.689Z,27.33
2022-10-30T07:33:22.800Z,25.52
2022-10-30T07:36:02.358Z,26.73
2022-10-30T07:38:43.914Z,29.70
2022-10-30T07:41:25.962Z,34.33
2022-10-30T07:44:12.320Z,23.55
2022-10-30T07:46:46.608Z,25.67
2022-10-30T07:49:27.540Z,26.25
2022-10-30T07:54:24.893Z,33.47
2022-10-30T07:56:52.025Z,27.30
2022-10-30T07:59:37.221Z,24.23
2022-10-30T08:02:21.810Z,32.17
2022-10-30T08:05:07.152Z,29.67
2022-10-30T08:07:51.296Z,30.58
2022-10-30T08:10:17.802Z,25.30
2022-10-30T08:12:45.772Z,26.63
2022-10-30T08:15:12.361Z,29.88
2022-10-30T08:17:46.747Z,28.98
2022-10-30T08:20:15.081Z,19.52
2022-10-30T08:22:52.799Z,24.80
2022-10-30T08:25:27.255Z,28.77
2022-10-30T08:30:37.991Z,21.73
2022-10-30T08:33:07.933Z,21.80
2022-10-30T08:35:56.637Z,26.83
2022-10-30T08:38:23.514Z,32.50
2022-10-30T08:41:05.711Z,27.90
2022-10-30T08:46:03.031Z,21.90
2022-10-30T08:48:29.954Z,20.55
2022-10-30T08:51:01.229Z,20.80
2022-10-30T08:53:33.119Z,21.30
2022-10-30T08:56:00.669Z,21.83
2022-10-30T08:58:37.564Z,20.67
2022-10-30T09:01:04.029Z,26.15
2022-10-30T09:03:48.946Z,17.63
2022-10-30T09:06:35.305Z,24.67
2022-10-30T09:09:20.163Z,20.55
2022-10-30T09:14:17.574Z,20.95
2022-10-30T09:16:44.063Z,24.10
2022-10-30T09:19:14.718Z,15.80
2022-10-30T09:21:44.526Z,22.58
2022-10-30T09:24:11.020Z,18.85
2022-10-30T09:26:37.378Z,22.75
2022-10-30T09:29:11.309Z,21.73
2022-10-30T09:32:00.181Z,16.40
2022-10-30T09:34:30.791Z,25.60
2022-10-30T09:37:04.576Z,18.98
2022-10-30T09:39:35.153Z,14.40
2022-10-30T09:42:11.074Z,15.13
2022-10-30T09:45:27.963Z,19.95
2022-10-30T09:48:34.981Z,15.05
2022-10-30T09:51:40.365Z,16.23
2022-10-30T09:54:37.079Z,20.15
2022-10-30T09:57:17.039Z,12.60
2022-10-30T10:00:05.521Z,22.70
2022-10-30T10:02:59.041Z,27.80
2022-10-30T10:05:48.287Z,23.60
2022-10-30T10:08:46.325Z,18.08
2022-10-30T10:11:55.268Z,25.52
2022-10-30T10:14:31.266Z,19.85
2022-10-30T10:17:01.783Z,20.02
2022-10-30T10:20:01.209Z,19.50
2022-10-30T10:22:42.988Z,19.40
2022-10-30T10:25:15.604Z,16.75
2022-10-30T10:27:56.344Z,21.50
2022-10-30T10:30:24.321Z,13.10
2022-10-30T10:33:10.465Z,22.63
2022-10-30T10:36:04.937Z,12.52
2022-10-30T10:38:53.090Z,15.60
2022-10-30T10:41:40.717Z,19.25
2022-10-30T10:44:29.871Z,18.35
2022-10-30T10:47:32.166Z,22.95
2022-10-30T10:50:38.943Z,19.88
2022-10-30T10:53:24.675Z,24.00
2022-10-30T10:55:56.425Z,17.23
2022-10-30T10:58:41.465Z,23.80
2022-10-30T11:01:14.518Z,21.25
2022-10-30T11:03:57.463Z,18.55
2022-10-30T11:06:39.929Z,19.90
2022-10-30T11:09:16.480Z,17.95
2022-10-30T11:11:46.996Z,17.95
2022-10-30T11:14:16.759Z,15.35
2022-10-30T11:17:03.786Z,14.27
2022-10-30T11:19:31.378Z,21.10
2022-10-30T11:21:59.069Z,19.63
2022-10-30T11:24:26.677Z,21.13
2022-10-30T11:26:54.417Z,17.00
2022-10-30T11:29:28.194Z,26.77
2022-10-30T11:32:05.658Z,17.65
2022-10-30T11:34:38.720Z,18.70
2022-10-30T11:37:05.381Z,15.73
2022-10-30T11:39:35.613Z,15.73
2022-10-30T11:42:18.286Z,17.08
2022-10-30T11:44:51.764Z,13.57
2022-10-30T11:47:32.738Z,21.15
2022-10-30T11:50:01.736Z,10.85
2022-10-30T11:52:28.410Z,24.55
2022-10-30T11:55:02.680Z,22.20
2022-10-30T11:57:35.680Z,21.08
2022-10-30T12:00:06.113Z,20.20
2022-10-30T12:02:43.809Z,16.10
2022-10-30T12:05:25.470Z,19.30
2022-10-30T12:07:52.896Z,21.55
2022-10-30T12:10:30.212Z,21.58
2022-10-30T12:12:57.098Z,15.82
2022-10-30T12:15:27.645Z,26.83
2022-10-30T12:17:59.384Z,14.82
2022-10-30T12:20:26.650Z,20.50
2022-10-30T12:22:53.234Z,18.17
2022-10-30T12:25:30.216Z,28.58
2022-10-30T12:28:04.551Z,24.00
2022-10-30T12:30:37.549Z,19.20
2022-10-30T12:33:15.353Z,17.20
2022-10-30T12:35:48.291Z,23.75
2022-10-30T12:38:27.706Z,21.67
2022-10-30T12:41:11.990Z,19.02
2022-10-30T12:43:42.903Z,16.55
2022-10-30T12:46:28.717Z,24.57
2022-10-30T12:49:21.906Z,21.77
2022-10-30T12:52:03.593Z,20.90
2022-10-30T12:54:39.121Z,15.65
2022-10-30T12:57:10.792Z,13.35
2022-10-30T12:59:46.285Z,17.48
2022-10-30T13:02:26.034Z,16.77
2022-10-30T13:04:58.845Z,15.40
2022-10-30T13:07:33.905Z,18.73
2022-10-30T13:10:19.052Z,23.70
2022-10-30T13:12:52.355Z,23.42
2022-10-30T13:15:38.821Z,28.55
2022-10-30T13:18:17.708Z,22.58
2022-10-30T13:20:55.870Z,23.95
2022-10-30T13:23:31.947Z,16.23
2022-10-30T13:26:09.357Z,20.75
2022-10-30T13:28:47.244Z,15.23
2022-10-30T13:32:11.527Z,22.10
2022-10-30T13:34:43.834Z,24.05
2022-10-30T13:37:18.222Z,14.82
2022-10-30T13:40:01.292Z,24.83
2022-10-30T13:42:43.928Z,17.42
2022-10-30T13:45:47.790Z,23.38
2022-10-30T13:48:33.328Z,11.65
2022-10-30T13:51:19.573Z,23.25
2022-10-30T13:53:52.995Z,18.55
2022-10-30T13:56:22.421Z,23.58
2022-10-30T13:59:10.293Z,22.85
2022-10-30T14:02:05.350Z,19.83
2022-10-30T14:05:07.217Z,21.20
2022-10-30T14:07:48.789Z,15.52
2022-10-30T14:10:45.136Z,15.60
2022-10-30T14:13:28.531Z,18.13
2022-10-30T14:15:59.742Z,12.75
2022-10-30T14:18:44.525Z,14.50
2022-10-30T14:21:31.976Z,11.23
2022-10-30T14:27:04.819Z,13.15
2022-10-30T14:29:39.710Z,20.83
2022-10-30T14:32:15.154Z,16.75
2022-10-30T14:34:43.624Z,21.77
2022-10-30T14:37:11.280Z,14.68
2022-10-30T14:39:42.913Z,14.68
2022-10-30T14:42:24.227Z,19.48
2022-10-30T14:44:59.703Z,20.58
2022-10-30T14:47:49.425Z,12.23
2022-10-30T14:50:42.709Z,13.30
2022-10-30T14:53:51.853Z,18.13
2022-10-30T14:56:41.570Z,17.08
2022-10-30T14:59:14.050Z,26.98
2022-10-30T15:02:11.487Z,32.78
2022-10-30T15:05:10.026Z,29.42
2022-10-30T15:07:54.761Z,26.63
2022-10-30T15:10:32.922Z,20.10
2022-10-30T15:13:11.660Z,18.60
2022-10-30T15:15:38.121Z,19.25
2022-10-30T15:18:11.099Z,18.83
2022-10-30T15:20:39.227Z,16.58
2022-10-30T15:23:27.161Z,20.15
2022-10-30T15:25:55.406Z,18.80
2022-10-30T15:31:00.240Z,20.90
2022-10-30T15:33:26.826Z,18.63
2022-10-30T15:35:53.227Z,16.92
2022-10-30T15:38:19.654Z,20.27
2022-10-30T15:40:46.082Z,23.05
2022-10-30T15:43:15.191Z,15.43
2022-10-30T15:45:44.946Z,17.80
2022-10-30T15:48:33.407Z,14.27
2022-10-30T15:51:16.752Z,17.52
2022-10-30T15:53:43.089Z,14.27
2022-10-30T15:56:25.729Z,19.17
2022-10-30T15:58:57.383Z,18.30
2022-10-30T16:01:26.831Z,14.90
2022-10-30T16:03:54.316Z,14.80
2022-10-30T16:06:24.841Z,20.10
2022-10-30T16:08:51.971Z,17.73
2022-10-30T16:11:20.893Z,13.15
2022-10-30T16:13:47.655Z,21.48
2022-10-30T16:16:30.329Z,14.98
2022-10-30T16:19:04.963Z,19.35
2022-10-30T16:21:31.971Z,20.05
2022-10-30T16:24:01.116Z,15.93
2022-10-30T16:26:35.134Z,13.32
2022-10-30T16:29:13.287Z,14.52
2022-10-30T16:31:42.902Z,18.77
2022-10-30T16:34:14.366Z,23.20
2022-10-30T16:36:41.533Z,22.35
2022-10-30T16:39:13.976Z,17.27
2022-10-30T16:41:40.600Z,16.73
2022-10-30T16:44:12.792Z,18.35
2022-10-30T16:46:45.844Z,17.13
2022-10-30T16:49:17.181Z,14.05
2022-10-30T16:51:43.865Z,15.35
2022-10-30T16:54:23.731Z,17.85
2022-10-30T16:56:53.830Z,15.98
2022-10-30T16:59:27.298Z,15.07
2022-10-30T17:01:57.435Z,16.63
2022-10-30T17:04:24.998Z,17.25
2022-10-30T17:07:04.614Z,14.52
2022-10-30T17:09:35.629Z,20.45
2022-10-30T17:12:06.321Z,16.67
2022-10-30T17:14:43.346Z,16.10
2022-10-30T17:17:21.358Z,18.10
2022-10-30T17:19:49.482Z,23.45
2022-10-30T17:22:20.310Z,20.75
2022-10-30T17:24:47.765Z,15.38
2022-10-30T17:27:46.772Z,16.58
2022-10-30T17:30:37.857Z,20.15
2022-10-30T17:33:30.484Z,23.38
2022-10-30T17:35:56.976Z,19.40
2022-10-30T17:38:23.384Z,19.13
2022-10-30T17:40:49.789Z,18.90
2022-10-30T17:43:16.664Z,23.17
2022-10-30T17:45:44.340Z,16.77
2022-10-30T17:48:16.210Z,18.13
2022-10-30T17:50:43.331Z,16.17
2022-10-30T17:53:16.320Z,21.45
2022-10-30T17:55:45.766Z,21.75
2022-10-30T17:58:12.174Z,23.08
2022-10-30T18:00:38.576Z,18.30
2022-10-30T18:03:04.993Z,20.65
2022-10-30T18:05:34.714Z,22.75
2022-10-30T18:08:01.128Z,24.35
2022-10-30T18:10:28.781Z,19.92
2022-10-30T18:12:55.193Z,31.52
2022-10-30T18:15:35.454Z,23.38
2022-10-30T18:18:05.339Z,22.53
2022-10-30T18:20:33.398Z,16.17
2022-10-30T18:23:00.212Z,20.75
2022-10-30T18:25:35.345Z,17.17
2022-10-30T18:28:02.598Z,28.25
2022-10-30T18:30:29.416Z,20.48
2022-10-30T18:32:56.563Z,19.00
2022-10-30T18:35:32.775Z,17.80
2022-10-30T18:37:59.245Z,21.10
2022-10-30T18:40:25.822Z,18.48
2022-10-30T18:42:52.271Z,16.92
2022-10-30T18:45:24.230Z,17.48
2022-10-30T18:47:51.977Z,16.42
2022-10-30T18:50:20.114Z,16.55
2022-10-30T18:52:46.739Z,15.00
2022-10-30T18:55:40.068Z,17.48
2022-10-30T18:58:07.592Z,13.52
2022-10-30T19:00:44.843Z,17.17
2022-10-30T19:03:17.568Z,9.90
2022-10-30T19:05:46.383Z,13.00
2022-10-30T19:08:12.885Z,12.20
2022-10-30T19:10:45.447Z,12.98
2022-10-30T19:13:20.302Z,14.38
2022-10-30T19:15:49.083Z,8.63
2022-10-30T19:18:16.190Z,8.48
2022-10-30T19:21:03.347Z,10.68
2022-10-30T19:23:29.210Z,8.77
2022-10-30T19:25:55.668Z,9.57
2022-10-30T19:28:22.160Z,9.25
2022-10-30T19:30:54.699Z,11.30
2022-10-30T19:33:22.914Z,13.15
2022-10-30T19:36:01.015Z,12.75
2022-10-30T19:38:28.065Z,11.60
2022-10-30T19:40:54.565Z,8.68
2022-10-30T19:43:21.060Z,11.85
2022-10-30T19:45:51.239Z,10.43
2022-10-30T19:48:24.978Z,10.23
2022-10-30T19:51:09.250Z,7.80
2022-10-30T19:53:35.648Z,6.47
2022-10-30T19:56:02.025Z,6.30
2022-10-30T19:58:28.456Z,9.50
2022-10-30T20:00:55.493Z,10.50
2022-10-30T20:03:21.945Z,9.75
2022-10-30T20:05:50.409Z,10.52
2022-10-30T20:08:19.483Z,15.10
2022-10-30T20:11:12.036Z,16.25
2022-10-30T20:13:38.423Z,8.73
2022-10-30T20:16:05.842Z,12.30
2022-10-30T20:18:34.489Z,11.40
2022-10-30T20:21:03.458Z,16.75
2022-10-30T20:23:30.439Z,14.10
2022-10-30T20:26:02.433Z,13.77
2022-10-30T20:28:37.125Z,11.18
2022-10-30T20:31:04.151Z,10.70
2022-10-30T20:33:30.639Z,8.63
2022-10-30T20:35:57.160Z,8.95
2022-10-30T20:38:29.265Z,10.55
2022-10-30T20:40:56.724Z,9.50
2022-10-30T20:43:30.044Z,11.63
2022-10-30T20:45:58.407Z,10.18
2022-10-30T20:48:25.448Z,12.02
2022-10-30T20:50:53.146Z,8.57
2022-10-30T20:53:19.540Z,6.50
2022-10-30T20:55:46.080Z,12.25
2022-10-30T20:58:12.818Z,9.10
2022-10-30T21:00:40.270Z,9.82
2022-10-30T21:03:07.046Z,9.52
2022-10-30T21:05:49.853Z,10.85
2022-10-30T21:08:16.265Z,8.10
2022-10-30T21:10:42.746Z,10.07
2022-10-30T21:13:10.211Z,10.82
2022-10-30T21:15:41.638Z,12.07
2022-10-30T21:20:36.608Z,14.45
2022-10-30T21:23:03.117Z,15.68
2022-10-30T21:25:31.469Z,11.15
2022-10-30T21:27:58.430Z,18.23
2022-10-30T21:30:24.940Z,21.10
2022-10-30T21:32:51.350Z,15.65
2022-10-30T21:35:17.832Z,14.77
2022-10-30T21:37:44.201Z,18.88
2022-10-30T21:40:11.182Z,18.13
2022-10-30T21:42:37.598Z,16.52
2022-10-30T21:45:04.585Z,19.15
2022-10-30T21:47:30.970Z,27.23
2022-10-30T21:49:57.365Z,27.50
2022-10-30T21:52:23.746Z,27.10
2022-10-30T21:54:50.128Z,38.22
2022-10-30T21:57:16.632Z,29.73
2022-10-30T21:59:43.045Z,36.15
2022-10-30T22:02:14.460Z,32.92
2022-10-30T22:04:40.917Z,28.27
2022-10-30T22:07:07.437Z,31.02
2022-10-30T22:09:33.936Z,35.33
2022-10-30T22:12:00.344Z,28.52
2022-10-30T22:14:26.932Z,35.55
2022-10-30T22:16:53.335Z,38.80
2022-10-30T22:19:19.762Z,34.95
2022-10-30T22:21:46.157Z,38.88
2022-10-30T22:24:13.667Z,35.65
2022-10-30T22:26:40.078Z,33.80
2022-10-30T22:29:06.488Z,40.92
2022-10-30T22:31:32.909Z,32.63
2022-10-30T22:34:00.938Z,38.33
2022-10-30T22:36:32.246Z,35.30
2022-10-30T22:39:01.136Z,34.42
2022-10-30T22:41:32.782Z,34.40
2022-10-30T22:44:04.319Z,25.70
2022-10-30T22:46:31.334Z,30.00
2022-10-30T22:48:58.318Z,33.08
2022-10-30T22:51:25.450Z,31.58
2022-10-30T22:53:57.615Z,27.80
2022-10-30T22:56:26.455Z,31.38
2022-10-30T22:58:53.478Z,30.60
2022-10-30T23:01:25.397Z,29.00
2022-10-30T23:03:54.648Z,28.30
2022-10-30T23:06:21.248Z,24.30
2022-10-30T23:08:48.005Z,28.17
2022-10-30T23:11:14.907Z,28.35
2022-10-30T23:13:41.640Z,26.38
2022-10-30T23:16:11.439Z,23.80
2022-10-30T23:18:37.854Z,26.15
2022-10-30T23:21:07.107Z,27.33
2022-10-30T23:23:37.717Z,23.08
2022-10-30T23:26:07.669Z,20.60
2022-10-30T23:28:34.451Z,20.00
2022-10-30T23:31:05.322Z,20.05
2022-10-30T23:33:31.733Z,20.92
2022-10-30T23:35:59.844Z,17.08
2022-10-30T23:38:26.605Z,19.77
2022-10-30T23:41:00.527Z,18.40
2022-10-30T23:43:26.907Z,16.65
2022-10-30T23:45:53.275Z,19.52
2022-10-30T23:48:19.671Z,17.08
2022-10-30T23:50:46.061Z,16.90
2022-10-30T23:53:12.539Z,17.88
2022-10-30T23:55:38.990Z,15.85
2022-10-30T23:58:05.786Z,16.67
